createdAt,value
2022-12-22T00:00:25.573Z,12.40
2022-12-22T00:03:13.041Z,13.27
2022-12-22T00:06:00.207Z,11.60
2022-12-22T00:08:47.313Z,10.52
2022-12-22T00:11:34.448Z,12.07
2022-12-22T00:14:21.443Z,11.68
2022-12-22T00:17:08.432Z,11.33
2022-12-22T00:19:55.837Z,11.63
2022-12-22T00:22:44.636Z,10.20
2022-12-22T00:25:36.796Z,10.65
2022-12-22T00:28:33.048Z,11.77
2022-12-22T00:31:20.945Z,8.80
2022-12-22T00:34:08.388Z,9.65
2022-12-22T00:36:56.327Z,8.10
2022-12-22T00:39:44.523Z,8.32
2022-12-22T00:42:31.404Z,10.27
2022-12-22T00:45:18.383Z,8.90
2022-12-22T00:48:06.052Z,7.80
2022-12-22T00:50:55.887Z,7.43
2022-12-22T00:53:43.528Z,10.32
2022-12-22T00:56:30.800Z,8.27
2022-12-22T00:59:19.987Z,8.23
2022-12-22T01:02:07.869Z,6.50
2022-12-22T01:04:57.214Z,8.15
2022-12-22T01:07:46.672Z,9.43
2022-12-22T01:10:34.729Z,8.55
2022-12-22T01:13:29.706Z,8.13
2022-12-22T01:16:16.732Z,10.88
2022-12-22T01:19:04.136Z,9.80
2022-12-22T01:21:51.677Z,12.00
2022-12-22T01:24:38.667Z,12.48
2022-12-22T01:27:29.544Z,13.75
2022-12-22T01:30:16.979Z,14.13
2022-12-22T01:33:04.938Z,13.93
2022-12-22T01:35:53.959Z,13.57
2022-12-22T01:38:41.091Z,11.90
2022-12-22T01:41:34.061Z,11.25
2022-12-22T01:44:21.348Z,14.25
2022-12-22T01:47:08.727Z,12.60
2022-12-22T01:49:57.333Z,13.07
2022-12-22T01:52:51.989Z,12.50
2022-12-22T01:55:45.706Z,14.30
2022-12-22T01:59:00.622Z,11.18
2022-12-22T02:01:50.336Z,15.55
2022-12-22T02:04:40.991Z,12.55
2022-12-22T02:07:57.076Z,12.00
2022-12-22T02:10:44.559Z,12.77
2022-12-22T02:13:52.607Z,13.20
2022-12-22T02:17:11.873Z,14.60
2022-12-22T02:20:20.529Z,10.87
2022-12-22T02:23:23.598Z,12.88
2022-12-22T02:26:34.970Z,12.30
2022-12-22T02:29:24.301Z,10.27
2022-12-22T02:32:11.788Z,12.25
2022-12-22T02:34:59.753Z,12.93
2022-12-22T02:37:57.313Z,11.90
2022-12-22T02:41:04.506Z,10.05
2022-12-22T02:44:35.684Z,11.43
2022-12-22T02:47:46.764Z,11.80
2022-12-22T02:50:43.139Z,16.05
2022-12-22T02:53:33.078Z,11.20
2022-12-22T02:56:24.715Z,12.05
2022-12-22T02:59:13.407Z,13.63
2022-12-22T03:02:04.107Z,12.50
2022-12-22T03:04:51.425Z,13.05
2022-12-22T03:07:38.817Z,14.00
2022-12-22T03:10:26.933Z,13.63
2022-12-22T03:13:17.616Z,13.02
2022-12-22T03:16:04.954Z,12.93
2022-12-22T03:18:52.418Z,15.20
2022-12-22T03:21:39.487Z,13.77
2022-12-22T03:24:27.013Z,14.35
2022-12-22T03:26:56.439Z,13.98
2022-12-22T03:29:25.071Z,14.00
2022-12-22T03:31:53.943Z,13.35
2022-12-22T03:34:22.551Z,15.05
2022-12-22T03:36:51.532Z,15.75
2022-12-22T03:39:20.336Z,14.07
2022-12-22T03:42:07.539Z,14.43
2022-12-22T03:44:54.694Z,19.77
2022-12-22T03:47:24.082Z,13.73
2022-12-22T03:49:52.583Z,13.13
2022-12-22T03:52:21.619Z,15.90
2022-12-22T03:54:50.311Z,17.70
2022-12-22T03:57:19.129Z,15.30
2022-12-22T03:59:47.966Z,17.23
2022-12-22T04:02:16.986Z,12.90
2022-12-22T04:04:45.847Z,40.70
2022-12-22T04:07:14.744Z,16.77
2022-12-22T04:10:03.241Z,16.45
2022-12-22T04:12:50.493Z,14.13
2022-12-22T04:15:19.405Z,13.90
2022-12-22T04:17:48.106Z,14.75
2022-12-22T04:20:17.136Z,14.18
2022-12-22T04:22:46.245Z,15.25
2022-12-22T04:25:16.261Z,14.52
2022-12-22T04:27:45.058Z,16.48
2022-12-22T04:30:14.364Z,16.10
2022-12-22T04:32:43.697Z,14.70
2022-12-22T04:35:13.100Z,15.25
2022-12-22T04:37:41.739Z,16.38
2022-12-22T04:40:10.855Z,15.45
2022-12-22T04:42:39.850Z,14.43
2022-12-22T04:45:09.957Z,15.85
2022-12-22T04:47:38.867Z,15.45
2022-12-22T04:50:08.115Z,15.20
2022-12-22T04:52:37.116Z,17.98
2022-12-22T04:55:07.612Z,15.80
2022-12-22T04:57:40.854Z,16.83
2022-12-22T05:00:11.398Z,17.60
2022-12-22T05:02:40.725Z,17.40
2022-12-22T05:05:10.294Z,15.57
2022-12-22T05:07:39.132Z,15.90
2022-12-22T05:10:09.796Z,17.55
2022-12-22T05:12:59.108Z,16.30
2022-12-22T05:15:31.641Z,16.85
2022-12-22T05:18:02.271Z,15.63
2022-12-22T05:20:32.093Z,17.23
2022-12-22T05:23:01.093Z,16.38
2022-12-22T05:25:34.692Z,17.20
2022-12-22T05:28:04.625Z,17.30
2022-12-22T05:30:33.532Z,17.25
2022-12-22T05:33:05.431Z,18.50
2022-12-22T05:35:34.249Z,19.17
2022-12-22T05:38:02.961Z,19.95
2022-12-22T05:40:32.902Z,17.48
2022-12-22T05:43:01.702Z,16.47
2022-12-22T05:45:31.351Z,14.15
2022-12-22T05:48:00.047Z,17.48
2022-12-22T05:50:29.679Z,18.38
2022-12-22T05:53:07.256Z,19.40
2022-12-22T05:55:36.626Z,17.83
2022-12-22T05:58:05.192Z,19.92
2022-12-22T06:00:34.342Z,18.05
2022-12-22T06:03:03.201Z,18.93
2022-12-22T06:05:32.708Z,20.15
2022-12-22T06:08:01.693Z,21.42
2022-12-22T06:10:49.366Z,21.67
2022-12-22T06:13:36.661Z,19.95
2022-12-22T06:16:05.907Z,18.30
2022-12-22T06:18:34.908Z,18.75
2022-12-22T06:21:03.988Z,19.83
2022-12-22T06:23:32.617Z,16.70
2022-12-22T06:26:03.318Z,17.63
2022-12-22T06:28:32.763Z,17.38
2022-12-22T06:31:02.708Z,17.07
2022-12-22T06:33:32.059Z,16.77
2022-12-22T06:36:06.594Z,19.50
2022-12-22T06:38:36.336Z,17.73
2022-12-22T06:41:04.901Z,18.80
2022-12-22T06:43:33.906Z,19.00
2022-12-22T06:46:03.043Z,17.15
2022-12-22T06:48:31.876Z,19.15
2022-12-22T06:51:01.724Z,19.85
2022-12-22T06:53:30.605Z,19.25
2022-12-22T06:55:59.919Z,16.63
2022-12-22T06:58:29.011Z,16.95
2022-12-22T07:00:58.762Z,22.75
2022-12-22T07:03:27.809Z,17.17
2022-12-22T07:05:56.730Z,18.05
2022-12-22T07:11:11.530Z,18.42
2022-12-22T07:13:40.738Z,16.23
2022-12-22T07:16:11.630Z,15.77
2022-12-22T07:18:43.763Z,16.20
2022-12-22T07:21:14.942Z,17.90
2022-12-22T07:23:44.030Z,20.13
2022-12-22T07:26:13.766Z,16.27
2022-12-22T07:28:44.239Z,17.15
2022-12-22T07:31:13.562Z,17.45
2022-12-22T07:33:42.747Z,16.15
2022-12-22T07:36:20.032Z,17.63
2022-12-22T07:38:51.550Z,16.33
2022-12-22T07:41:39.661Z,16.03
2022-12-22T07:44:09.445Z,16.02
2022-12-22T07:46:39.787Z,15.93
2022-12-22T07:49:28.218Z,15.20
2022-12-22T07:51:59.028Z,16.17
2022-12-22T07:54:28.748Z,17.00
2022-12-22T07:56:57.860Z,18.38
2022-12-22T07:59:26.553Z,17.45
2022-12-22T08:01:55.698Z,18.20
2022-12-22T08:04:24.804Z,17.83
2022-12-22T08:06:53.380Z,18.52
2022-12-22T08:09:24.094Z,18.77
2022-12-22T08:11:53.169Z,19.48
2022-12-22T08:14:22.028Z,21.45
2022-12-22T08:16:51.349Z,21.65
2022-12-22T08:19:20.586Z,19.92
2022-12-22T08:21:52.876Z,20.17
2022-12-22T08:24:22.933Z,18.15
2022-12-22T08:26:56.975Z,19.17
2022-12-22T08:29:34.413Z,17.73
2022-12-22T08:32:03.506Z,15.80
2022-12-22T08:34:32.647Z,18.25
2022-12-22T08:37:07.022Z,20.58
2022-12-22T08:39:39.640Z,22.57
2022-12-22T08:42:12.630Z,20.50
2022-12-22T08:44:42.783Z,18.52
2022-12-22T08:47:16.617Z,19.63
2022-12-22T08:49:47.451Z,20.70
2022-12-22T08:52:18.728Z,18.95
2022-12-22T08:54:48.451Z,18.58
2022-12-22T08:57:17.336Z,22.17
2022-12-22T08:59:49.198Z,16.92
2022-12-22T09:02:18.214Z,17.13
2022-12-22T09:04:48.443Z,15.20
2022-12-22T09:07:19.355Z,17.83
2022-12-22T09:09:48.670Z,14.80
2022-12-22T09:12:18.926Z,16.83
2022-12-22T09:14:48.340Z,19.33
2022-12-22T09:17:16.912Z,16.08
2022-12-22T09:19:46.477Z,15.95
2022-12-22T09:22:15.324Z,14.23
2022-12-22T09:24:44.642Z,15.55
2022-12-22T09:27:13.843Z,17.00
2022-12-22T09:29:44.237Z,17.40
2022-12-22T09:32:13.593Z,20.10
2022-12-22T09:34:42.241Z,21.08
2022-12-22T09:37:12.225Z,28.37
2022-12-22T09:39:43.693Z,27.58
2022-12-22T09:42:21.261Z,27.95
2022-12-22T09:44:52.623Z,29.33
2022-12-22T09:47:41.094Z,29.20
2022-12-22T09:50:17.996Z,30.30
2022-12-22T09:53:07.669Z,28.83
2022-12-22T09:55:46.226Z,24.35
2022-12-22T09:58:26.500Z,28.33
2022-12-22T10:01:38.799Z,28.90
2022-12-22T10:04:31.831Z,27.42
2022-12-22T10:07:10.405Z,28.25
2022-12-22T10:09:50.051Z,30.73
2022-12-22T10:12:24.721Z,26.02
2022-12-22T10:14:56.495Z,26.13
2022-12-22T10:17:36.151Z,26.88
2022-12-22T10:20:28.779Z,26.40
2022-12-22T10:23:14.088Z,28.38
2022-12-22T10:28:52.043Z,26.20
2022-12-22T10:31:25.459Z,29.25
2022-12-22T10:33:58.172Z,26.42
2022-12-22T10:36:33.615Z,31.77
2022-12-22T10:39:04.334Z,30.60
2022-12-22T10:41:39.831Z,27.38
2022-12-22T10:44:18.299Z,26.70
2022-12-22T10:46:53.191Z,28.27
2022-12-22T10:52:33.827Z,32.70
2022-12-22T10:55:19.200Z,25.77
2022-12-22T10:57:50.605Z,28.60
2022-12-22T11:00:31.299Z,25.70
2022-12-22T11:03:02.883Z,32.95
2022-12-22T11:05:33.632Z,27.42
2022-12-22T11:08:18.236Z,24.83
2022-12-22T11:11:17.098Z,26.55
2022-12-22T11:13:58.933Z,25.80
2022-12-22T11:16:42.818Z,31.08
2022-12-22T11:19:48.903Z,29.95
2022-12-22T11:22:40.316Z,26.05
2022-12-22T11:26:05.470Z,30.60
2022-12-22T11:29:10.813Z,30.75
2022-12-22T11:31:55.546Z,41.38
2022-12-22T11:34:47.718Z,37.92
2022-12-22T11:37:41.273Z,67.35
2022-12-22T11:40:50.128Z,61.42
2022-12-22T11:43:46.598Z,47.15
2022-12-22T11:46:37.004Z,50.13
2022-12-22T11:49:20.377Z,49.13
2022-12-22T11:52:23.370Z,47.75
2022-12-22T11:54:59.142Z,39.95
2022-12-22T11:57:38.444Z,38.53
2022-12-22T12:00:19.689Z,35.72
2022-12-22T12:03:24.711Z,37.50
2022-12-22T12:06:06.797Z,33.03
2022-12-22T12:08:53.262Z,32.00
2022-12-22T12:11:29.735Z,37.95
2022-12-22T12:14:01.894Z,33.13
2022-12-22T12:17:01.117Z,31.73
2022-12-22T12:19:37.098Z,37.25
2022-12-22T12:22:12.131Z,34.47
2022-12-22T12:25:03.641Z,35.30
2022-12-22T12:27:42.367Z,39.60
2022-12-22T12:33:22.760Z,40.63
2022-12-22T12:36:07.382Z,53.90
2022-12-22T12:39:08.043Z,40.08
2022-12-22T12:42:08.678Z,33.42
2022-12-22T12:44:42.917Z,29.58
2022-12-22T12:47:31.132Z,30.20
2022-12-22T12:50:34.762Z,27.48
2022-12-22T12:53:10.322Z,29.67
2022-12-22T12:55:44.067Z,32.13
2022-12-22T12:58:34.180Z,28.30
2022-12-22T13:01:07.571Z,29.27
2022-12-22T13:06:54.594Z,33.42
2022-12-22T13:09:50.390Z,31.75
2022-12-22T13:12:36.122Z,35.60
2022-12-22T13:15:06.539Z,37.17
2022-12-22T13:17:49.485Z,30.92
2022-12-22T13:20:29.209Z,32.63
2022-12-22T13:23:02.847Z,31.02
2022-12-22T13:25:57.261Z,36.97
2022-12-22T13:28:29.624Z,37.57
2022-12-22T13:31:22.901Z,38.70
2022-12-22T13:34:46.284Z,36.45
2022-12-22T13:37:28.954Z,35.50
2022-12-22T13:40:33.132Z,39.30
2022-12-22T13:43:14.575Z,36.17
2022-12-22T13:46:07.166Z,36.00
2022-12-22T13:48:48.285Z,33.67
2022-12-22T13:51:36.760Z,34.22
2022-12-22T13:54:16.592Z,32.00
2022-12-22T13:56:48.198Z,32.28
2022-12-22T13:59:29.996Z,34.25
2022-12-22T14:02:05.657Z,32.83
2022-12-22T14:04:35.754Z,32.78
2022-12-22T14:07:23.055Z,34.42
2022-12-22T14:09:57.415Z,38.33
2022-12-22T14:12:41.289Z,39.10
2022-12-22T14:15:19.126Z,34.35
2022-12-22T14:17:53.162Z,31.73
2022-12-22T14:20:30.085Z,31.13
2022-12-22T14:23:22.649Z,25.92
2022-12-22T14:25:55.405Z,31.13
2022-12-22T14:28:31.547Z,30.42
2022-12-22T14:31:02.672Z,28.77
2022-12-22T14:33:36.158Z,31.75
2022-12-22T14:36:07.868Z,30.95
2022-12-22T14:38:51.086Z,39.75
2022-12-22T14:41:59.082Z,41.05
2022-12-22T14:44:46.353Z,50.72
2022-12-22T14:47:24.243Z,52.72
2022-12-22T14:50:15.656Z,56.47
2022-12-22T14:52:52.617Z,55.03
2022-12-22T14:55:36.843Z,41.63
2022-12-22T14:58:13.751Z,19.55
2022-12-22T15:00:49.744Z,15.88
2022-12-22T15:03:40.240Z,17.52
2022-12-22T15:06:29.264Z,20.30
2022-12-22T15:09:13.171Z,26.13
2022-12-22T15:11:48.132Z,27.55
2022-12-22T15:14:23.614Z,33.83
2022-12-22T15:17:03.898Z,32.22
2022-12-22T15:19:36.844Z,41.70
2022-12-22T15:22:09.772Z,40.88
2022-12-22T15:24:39.875Z,39.40
2022-12-22T15:27:09.575Z,38.33
2022-12-22T15:29:39.618Z,34.50
2022-12-22T15:32:16.638Z,34.47
2022-12-22T15:34:47.132Z,34.10
2022-12-22T15:37:17.385Z,32.55
2022-12-22T15:39:48.584Z,32.53
2022-12-22T15:42:19.268Z,34.58
2022-12-22T15:44:49.518Z,33.70
2022-12-22T15:47:24.607Z,28.70
2022-12-22T15:49:55.013Z,28.23
2022-12-22T15:52:28.227Z,29.67
2022-12-22T15:55:00.448Z,29.20
2022-12-22T15:57:31.383Z,28.98
2022-12-22T16:00:01.895Z,29.60
2022-12-22T16:02:33.570Z,28.65
2022-12-22T16:05:04.024Z,26.58
2022-12-22T16:07:34.631Z,25.97
2022-12-22T16:10:07.142Z,28.15
2022-12-22T16:12:38.487Z,28.35
2022-12-22T16:15:16.107Z,31.00
2022-12-22T16:17:47.522Z,29.50
2022-12-22T16:20:17.784Z,23.00
2022-12-22T16:22:47.771Z,27.60
2022-12-22T16:25:22.604Z,25.63
2022-12-22T16:27:53.444Z,23.10
2022-12-22T16:30:26.181Z,25.10
2022-12-22T16:32:57.885Z,22.77
2022-12-22T16:35:30.778Z,20.48
2022-12-22T16:38:02.319Z,26.02
2022-12-22T16:40:35.098Z,28.40
2022-12-22T16:46:02.268Z,27.00
2022-12-22T16:48:44.909Z,23.85
2022-12-22T16:51:40.491Z,25.25
2022-12-22T16:54:16.037Z,32.00
2022-12-22T16:56:53.606Z,27.17
2022-12-22T16:59:43.667Z,24.90
2022-12-22T17:02:36.940Z,23.73
2022-12-22T17:05:14.768Z,23.08
2022-12-22T17:07:46.745Z,20.27
2022-12-22T17:10:19.079Z,20.60
2022-12-22T17:12:55.218Z,19.98
2022-12-22T17:15:26.073Z,22.60
2022-12-22T17:17:57.655Z,19.13
2022-12-22T17:20:30.573Z,21.75
2022-12-22T17:23:05.375Z,24.00
2022-12-22T17:25:35.744Z,21.17
2022-12-22T17:28:06.227Z,20.92
2022-12-22T17:30:37.070Z,18.92
2022-12-22T17:33:07.209Z,18.08
2022-12-22T17:35:38.588Z,19.07
2022-12-22T17:38:23.871Z,21.83
2022-12-22T17:40:54.914Z,20.92
2022-12-22T17:43:28.046Z,19.73
2022-12-22T17:45:58.038Z,21.35
2022-12-22T17:48:27.690Z,22.58
2022-12-22T17:50:58.203Z,21.27
2022-12-22T17:53:29.160Z,20.45
2022-12-22T17:56:09.551Z,21.02
2022-12-22T17:58:39.963Z,21.98
2022-12-22T18:01:20.837Z,22.98
2022-12-22T18:03:51.199Z,36.33
2022-12-22T18:06:23.434Z,25.73
2022-12-22T18:08:55.178Z,20.40
2022-12-22T18:11:25.436Z,23.25
2022-12-22T18:13:58.262Z,21.90
2022-12-22T18:16:28.462Z,18.65
2022-12-22T18:18:57.701Z,20.17
2022-12-22T18:21:30.271Z,23.15
2022-12-22T18:24:02.067Z,21.15
2022-12-22T18:26:33.373Z,20.23
2022-12-22T18:29:05.111Z,17.83
2022-12-22T18:31:35.387Z,20.80
2022-12-22T18:34:06.637Z,19.52
2022-12-22T18:36:37.370Z,20.48
2022-12-22T18:39:11.817Z,21.35
2022-12-22T18:41:44.922Z,19.85
2022-12-22T18:44:18.876Z,19.80
2022-12-22T18:46:49.805Z,17.95
2022-12-22T18:49:19.388Z,19.83
2022-12-22T18:51:48.825Z,16.15
2022-12-22T18:54:39.229Z,19.87
2022-12-22T18:57:16.012Z,17.52
2022-12-22T18:59:46.472Z,17.50
2022-12-22T19:02:29.704Z,18.17
2022-12-22T19:04:59.555Z,17.35
2022-12-22T19:07:28.969Z,16.20
2022-12-22T19:09:58.837Z,22.67
2022-12-22T19:12:29.865Z,20.95
2022-12-22T19:15:04.902Z,21.33
2022-12-22T19:17:34.628Z,23.98
2022-12-22T19:20:03.841Z,21.27
2022-12-22T19:22:33.208Z,23.85
2022-12-22T19:25:03.148Z,17.83
2022-12-22T19:27:37.125Z,21.60
2022-12-22T19:30:07.446Z,22.83
2022-12-22T19:32:49.293Z,22.45
2022-12-22T19:35:22.140Z,20.73
2022-12-22T19:37:53.265Z,27.07
2022-12-22T19:40:29.194Z,24.73
2022-12-22T19:42:59.891Z,17.27
2022-12-22T19:45:37.251Z,17.52
2022-12-22T19:48:18.899Z,23.42
2022-12-22T19:50:49.729Z,15.90
2022-12-22T19:53:20.288Z,18.35
2022-12-22T19:55:56.673Z,16.48
2022-12-22T19:58:32.503Z,15.43
2022-12-22T20:01:02.034Z,18.17
2022-12-22T20:03:31.621Z,19.08
2022-12-22T20:06:01.066Z,18.23
2022-12-22T20:08:30.652Z,18.70
2022-12-22T20:11:01.820Z,15.43
2022-12-22T20:13:35.188Z,17.40
2022-12-22T20:16:06.236Z,15.70
2022-12-22T20:18:36.137Z,17.45
2022-12-22T20:21:09.393Z,19.63
2022-12-22T20:23:40.332Z,19.63
2022-12-22T20:26:16.682Z,17.40
2022-12-22T20:28:46.011Z,17.92
2022-12-22T20:31:17.348Z,17.85
2022-12-22T20:33:48.098Z,16.17
2022-12-22T20:36:25.727Z,17.73
2022-12-22T20:38:56.912Z,17.15
2022-12-22T20:41:26.992Z,20.25
2022-12-22T20:43:56.287Z,16.90
2022-12-22T20:46:28.742Z,18.08
2022-12-22T20:49:01.375Z,18.10
2022-12-22T20:51:33.702Z,17.42
2022-12-22T20:54:03.664Z,17.42
2022-12-22T20:56:39.180Z,15.57
2022-12-22T20:59:21.973Z,16.20
2022-12-22T21:01:53.585Z,15.80
2022-12-22T21:04:29.307Z,15.90
2022-12-22T21:06:59.148Z,14.93
2022-12-22T21:09:28.503Z,15.60
2022-12-22T21:11:57.832Z,18.20
2022-12-22T21:14:27.135Z,14.13
2022-12-22T21:16:59.512Z,13.45
2022-12-22T21:19:29.318Z,16.65
2022-12-22T21:21:58.417Z,14.30
2022-12-22T21:24:27.666Z,12.07
2022-12-22T21:26:57.581Z,12.20
2022-12-22T21:29:28.413Z,13.05
2022-12-22T21:31:57.764Z,15.10
2022-12-22T21:34:26.986Z,13.35
2022-12-22T21:37:04.881Z,13.75
2022-12-22T21:39:45.872Z,13.80
2022-12-22T21:42:24.349Z,14.48
2022-12-22T21:44:54.377Z,15.20
2022-12-22T21:47:23.604Z,13.17
2022-12-22T21:49:53.192Z,12.43
2022-12-22T21:52:22.481Z,15.13
2022-12-22T21:54:52.433Z,15.10
2022-12-22T21:57:21.789Z,14.80
2022-12-22T21:59:51.307Z,17.83
2022-12-22T22:02:20.689Z,16.98
2022-12-22T22:04:54.529Z,17.33
2022-12-22T22:07:25.229Z,16.10
2022-12-22T22:09:55.405Z,17.70
2022-12-22T22:12:33.696Z,17.20
2022-12-22T22:15:03.305Z,17.13
2022-12-22T22:17:32.388Z,16.40
2022-12-22T22:20:02.536Z,18.92
2022-12-22T22:22:32.130Z,12.07
2022-12-22T22:25:01.532Z,8.73
2022-12-22T22:27:30.777Z,5.80
2022-12-22T22:29:59.953Z,7.88
2022-12-22T22:32:29.112Z,7.18
2022-12-22T22:34:59.203Z,5.80
2022-12-22T22:37:28.495Z,7.05
2022-12-22T22:39:58.601Z,4.82
2022-12-22T22:42:28.016Z,4.38
2022-12-22T22:44:58.285Z,5.70
2022-12-22T22:47:27.546Z,4.35
2022-12-22T22:49:56.894Z,6.27
2022-12-22T22:52:26.144Z,5.05
2022-12-22T22:54:55.509Z,6.45
2022-12-22T22:57:24.887Z,6.50
2022-12-22T22:59:54.146Z,5.13
2022-12-22T23:02:23.622Z,5.97
2022-12-22T23:04:53.395Z,6.63
2022-12-22T23:07:22.557Z,6.10
2022-12-22T23:09:52.424Z,5.55
2022-12-22T23:12:21.778Z,9.52
2022-12-22T23:14:51.136Z,6.90
2022-12-22T23:17:20.393Z,7.85
2022-12-22T23:19:50.267Z,7.82
2022-12-22T23:22:19.520Z,9.90
2022-12-22T23:24:48.888Z,7.57
2022-12-22T23:27:18.641Z,9.13
2022-12-22T23:29:47.952Z,9.32
2022-12-22T23:32:17.432Z,8.65
2022-12-22T23:34:46.886Z,7.55
2022-12-22T23:37:19.742Z,8.93
2022-12-22T23:39:49.170Z,7.75
2022-12-22T23:42:18.734Z,9.25
2022-12-22T23:44:49.282Z,8.82
2022-12-22T23:47:18.494Z,8.90
2022-12-22T23:49:47.720Z,10.85
2022-12-22T23:52:17.069Z,8.97
2022-12-22T23:54:46.068Z,9.13
2022-12-22T23:57:15.419Z,9.10
2022-12-22T23:59:44.654Z,9.20
